Kulusuk, Greenland

3:36 AM WGST on August 30, 2016 (GMT -0200)
Kulusuk | | Change Station

Elev 121 ft 65.57 °N, 37.13 °W | Updated 46 minutes ago

Mostly Cloudy
Mostly Cloudy
45 °F
Feels Like 40 °F
N
8
Wind Variable Wind from ENE

Today
High -- | Low -- °F
--% Chance of Precip.
Yesterday
High -- | Low -- °F
Precip. -- in
Pressure 29.47 in
Visibility 6.2 miles
Clouds Mostly Cloudy 1800 ft
Windchill 40 °F
Dew Point 37 °F
Humidity 76%
Rainfall 0.00 in
Snow Depth Not available.
5:00 AM 7:55 PM
Waning Crescent, 5% visible
METAR BGKK 300450Z AUTO 07007KT 9999NDV BKN018/// 07/03 Q0998
Pressure 29.47 in
Visibility 6.2 miles
Clouds Mostly Cloudy 1800 ft
Windchill 40 °F
Dew Point 37 °F
Humidity 76%
Rainfall 0.00 in
Snow Depth Not available.
5:00 AM 7:55 PM
Waning Crescent, 5% visible
METAR BGKK 300450Z AUTO 07007KT 9999NDV BKN018/// 07/03 Q0998

10-Day Weather Forecast

×

Almanac

Astronomy

Aug. 30, 2016 Rise Set
Actual Time
Civil Twilight
Nautical Twilight
Astronomical Twilight
Moon
Length of Visible Light
Length of Day
Tomorrow will be .
, % of the Moon is Illuminated

Today's Extremes

Country Highs Country Lows

Community

WunderPhotos

Upload Photos

1,935,794 photos uploaded!

WunderBlog® & News

Nearby

Air Quality

  Air Quality AQ Index Pollutant
Not available.

Snow Depth

Station Depth Elevation

Earthquake Activity

City Distance Mag. Time & Date
Minimum magnitude displayed is 2.5.

Coastal Water Temperatures

Place Temperature

Stations

Nearby Weather Stations

Station Location Temp. Windchill Dew Point Humidity Wind Precip. Elev Updated Type